createdAt,value
2022-11-05T00:00:44.880Z,9.93
2022-11-05T00:03:29.667Z,9.89
2022-11-05T00:06:14.410Z,9.87
2022-11-05T00:09:00.254Z,9.82
2022-11-05T00:11:45.544Z,9.80
2022-11-05T00:14:30.918Z,9.80
2022-11-05T00:16:57.414Z,9.74
2022-11-05T00:19:23.723Z,9.71
2022-11-05T00:22:08.299Z,9.71
2022-11-05T00:24:53.097Z,9.69
2022-11-05T00:27:19.431Z,9.67
2022-11-05T00:29:45.776Z,9.66
2022-11-05T00:32:12.107Z,9.65
2022-11-05T00:34:38.429Z,9.65
2022-11-05T00:37:04.757Z,9.64
2022-11-05T00:39:31.103Z,9.62
2022-11-05T00:42:15.871Z,9.62
2022-11-05T00:45:00.670Z,9.59
2022-11-05T00:47:45.390Z,9.54
2022-11-05T00:50:11.808Z,9.53
2022-11-05T00:52:57.527Z,9.49
2022-11-05T00:55:35.226Z,9.45
2022-11-05T00:58:03.484Z,9.39
2022-11-05T01:00:32.511Z,9.39
2022-11-05T01:03:01.093Z,9.38
2022-11-05T01:05:31.655Z,9.35
2022-11-05T01:07:58.395Z,9.34
2022-11-05T01:10:25.754Z,9.32
2022-11-05T01:12:52.160Z,9.32
2022-11-05T01:15:19.947Z,9.30
2022-11-05T01:17:46.371Z,9.27
2022-11-05T01:20:16.374Z,9.24
2022-11-05T01:22:43.114Z,9.22
2022-11-05T01:25:10.123Z,9.20
2022-11-05T01:27:39.912Z,9.19
2022-11-05T01:30:08.064Z,9.22
2022-11-05T01:32:36.156Z,9.25
2022-11-05T01:35:06.848Z,9.24
2022-11-05T01:37:34.362Z,9.18
2022-11-05T01:40:01.440Z,9.21
2022-11-05T01:42:28.729Z,9.18
2022-11-05T01:45:12.690Z,9.15
2022-11-05T01:48:26.620Z,9.15
2022-11-05T01:51:01.286Z,9.15
2022-11-05T01:53:40.743Z,9.13
2022-11-05T01:56:12.367Z,9.12
2022-11-05T01:58:53.006Z,9.10
2022-11-05T02:01:19.730Z,9.07
2022-11-05T02:03:49.006Z,9.07
2022-11-05T02:06:17.414Z,9.05
2022-11-05T02:08:59.675Z,9.04
2022-11-05T02:11:26.662Z,9.01
2022-11-05T02:13:53.029Z,8.97
2022-11-05T02:16:37.896Z,9.01
2022-11-05T02:19:13.117Z,8.98
2022-11-05T02:22:04.574Z,8.96
2022-11-05T02:25:00.226Z,8.95
2022-11-05T02:27:44.979Z,8.94
2022-11-05T02:30:25.069Z,8.95
2022-11-05T02:33:14.481Z,8.91
2022-11-05T02:36:04.046Z,8.89
2022-11-05T02:39:12.246Z,8.86
2022-11-05T02:42:05.165Z,8.84
2022-11-05T02:44:39.542Z,8.79
2022-11-05T02:47:18.248Z,8.77
2022-11-05T02:50:05.893Z,8.73
2022-11-05T02:52:50.280Z,8.70
2022-11-05T02:55:39.968Z,8.67
2022-11-05T02:58:06.737Z,8.62
2022-11-05T03:00:40.876Z,8.61
2022-11-05T03:03:18.525Z,8.57
2022-11-05T03:06:22.325Z,8.55
2022-11-05T03:09:08.851Z,8.53
2022-11-05T03:11:50.245Z,8.49
2022-11-05T03:14:24.680Z,8.48
2022-11-05T03:17:21.046Z,8.45
2022-11-05T03:20:02.764Z,8.41
2022-11-05T03:22:36.687Z,8.33
2022-11-05T03:25:12.557Z,8.34
2022-11-05T03:27:43.965Z,8.33
2022-11-05T03:30:12.736Z,8.32
2022-11-05T03:32:41.754Z,8.29
2022-11-05T03:35:20.995Z,8.32
2022-11-05T03:37:50.984Z,8.35
2022-11-05T03:40:19.614Z,8.39
2022-11-05T03:42:49.202Z,8.46
2022-11-05T03:45:20.159Z,8.50
2022-11-05T03:47:50.330Z,8.54
2022-11-05T03:50:54.375Z,8.58
2022-11-05T03:53:25.891Z,8.59
2022-11-05T03:56:03.275Z,8.55
2022-11-05T03:58:31.371Z,8.54
2022-11-05T04:01:02.093Z,8.53
2022-11-05T04:03:36.031Z,8.54
2022-11-05T04:06:24.143Z,8.57
2022-11-05T04:09:09.324Z,8.59
2022-11-05T04:11:54.656Z,8.56
2022-11-05T04:14:20.992Z,8.55
2022-11-05T04:17:05.788Z,8.55
2022-11-05T04:19:54.356Z,8.55
2022-11-05T04:22:40.015Z,8.54
2022-11-05T04:25:06.680Z,8.53
2022-11-05T04:27:33.035Z,8.50
2022-11-05T04:30:17.568Z,8.53
2022-11-05T04:33:04.636Z,8.54
2022-11-05T04:35:33.887Z,8.55
2022-11-05T04:38:00.583Z,8.56
2022-11-05T04:40:27.018Z,8.58
2022-11-05T04:42:55.134Z,8.60
2022-11-05T04:45:26.592Z,8.57
2022-11-05T04:47:53.319Z,8.54
2022-11-05T04:50:19.699Z,8.52
2022-11-05T04:52:47.753Z,8.55
2022-11-05T04:55:14.144Z,8.56
2022-11-05T04:57:40.583Z,8.59
2022-11-05T05:00:08.144Z,8.61
2022-11-05T05:02:35.827Z,8.61
2022-11-05T05:05:02.309Z,8.59
2022-11-05T05:07:28.728Z,8.57
2022-11-05T05:09:55.210Z,8.56
2022-11-05T05:12:22.275Z,8.54
2022-11-05T05:14:51.553Z,8.52
2022-11-05T05:17:17.942Z,8.52
2022-11-05T05:20:03.977Z,8.53
2022-11-05T05:22:30.391Z,8.52
2022-11-05T05:24:56.778Z,8.51
2022-11-05T05:27:24.042Z,8.52
2022-11-05T05:29:50.551Z,8.54
2022-11-05T05:32:16.878Z,8.55
2022-11-05T05:34:43.202Z,8.54
2022-11-05T05:37:12.239Z,8.53
2022-11-05T05:39:38.589Z,8.53
2022-11-05T05:42:05.015Z,8.51
2022-11-05T05:44:31.357Z,8.51
2022-11-05T05:46:57.710Z,8.51
2022-11-05T05:49:24.195Z,8.52
2022-11-05T05:51:50.587Z,8.53
2022-11-05T05:54:17.119Z,8.58
2022-11-05T05:56:44.252Z,8.61
2022-11-05T05:59:10.959Z,8.63
2022-11-05T06:01:37.591Z,8.66
2022-11-05T06:04:04.354Z,8.68
2022-11-05T06:06:30.722Z,8.68
2022-11-05T06:08:59.829Z,8.71
2022-11-05T06:11:26.282Z,8.73
2022-11-05T06:13:52.615Z,8.71
2022-11-05T06:16:21.864Z,8.77
2022-11-05T06:18:48.302Z,8.77
2022-11-05T06:21:16.980Z,8.83
2022-11-05T06:23:44.807Z,8.84
2022-11-05T06:26:16.550Z,8.86
2022-11-05T06:28:43.271Z,8.88
2022-11-05T06:31:10.684Z,8.90
2022-11-05T06:33:37.170Z,8.94
2022-11-05T06:36:05.393Z,8.95
2022-11-05T06:38:33.788Z,8.95
2022-11-05T06:41:03.313Z,8.97
2022-11-05T06:43:32.075Z,8.96
2022-11-05T06:46:01.646Z,8.95
2022-11-05T06:48:28.840Z,8.97
2022-11-05T06:50:55.314Z,8.96
2022-11-05T06:53:22.062Z,8.95
2022-11-05T06:55:48.437Z,8.94
2022-11-05T06:58:15.442Z,8.90
2022-11-05T07:00:42.050Z,8.85
2022-11-05T07:03:14.709Z,8.87
2022-11-05T07:05:48.913Z,8.85
2022-11-05T07:08:15.935Z,8.84
2022-11-05T07:10:42.329Z,8.88
2022-11-05T07:13:09.175Z,8.87
2022-11-05T07:15:36.606Z,8.87
2022-11-05T07:18:04.014Z,8.86
2022-11-05T07:20:33.764Z,8.85
2022-11-05T07:23:06.288Z,8.87
2022-11-05T07:25:33.864Z,8.85
2022-11-05T07:28:00.668Z,8.83
2022-11-05T07:30:27.945Z,8.85
2022-11-05T07:32:54.562Z,8.85
2022-11-05T07:35:23.261Z,8.84
2022-11-05T07:37:51.670Z,8.87
2022-11-05T07:40:21.876Z,8.88
2022-11-05T07:42:50.552Z,8.85
2022-11-05T07:45:17.491Z,8.88
2022-11-05T07:47:52.113Z,8.93
2022-11-05T07:50:20.136Z,8.99
2022-11-05T07:52:48.030Z,9.01
2022-11-05T07:55:15.102Z,9.03
2022-11-05T07:57:50.239Z,9.17
2022-11-05T08:00:24.056Z,9.38
2022-11-05T08:03:07.233Z,9.49
2022-11-05T08:05:39.279Z,9.61
2022-11-05T08:08:07.909Z,9.69
2022-11-05T08:10:34.928Z,9.80
2022-11-05T08:13:01.776Z,9.88
2022-11-05T08:15:28.758Z,9.91
2022-11-05T08:18:03.396Z,9.96
2022-11-05T08:20:29.923Z,10.00
2022-11-05T08:22:56.975Z,10.04
2022-11-05T08:25:24.284Z,10.06
2022-11-05T08:28:05.253Z,10.02
2022-11-05T08:30:32.101Z,10.03
2022-11-05T08:33:03.992Z,10.05
2022-11-05T08:35:30.478Z,10.11
2022-11-05T08:37:58.388Z,10.12
2022-11-05T08:40:26.036Z,10.15
2022-11-05T08:42:53.003Z,10.23
2022-11-05T08:45:19.380Z,10.30
2022-11-05T08:47:46.175Z,10.38
2022-11-05T08:50:12.535Z,10.48
2022-11-05T08:52:42.113Z,10.60
2022-11-05T08:55:09.008Z,10.81
2022-11-05T08:57:35.350Z,11.18
2022-11-05T09:00:01.692Z,11.70
2022-11-05T09:02:28.079Z,12.10
2022-11-05T09:04:57.561Z,12.56
2022-11-05T09:07:24.153Z,13.26
2022-11-05T09:09:50.515Z,13.94
2022-11-05T09:12:17.171Z,14.63
2022-11-05T09:14:43.774Z,15.22
2022-11-05T09:17:20.089Z,15.78
2022-11-05T09:19:47.256Z,16.28
2022-11-05T09:22:14.209Z,16.65
2022-11-05T09:24:41.548Z,16.53
2022-11-05T09:27:13.175Z,16.14
2022-11-05T09:29:40.082Z,15.93
2022-11-05T09:32:06.849Z,15.85
2022-11-05T09:34:33.295Z,15.58
2022-11-05T09:36:59.737Z,15.31
2022-11-05T09:39:26.163Z,15.06
2022-11-05T09:41:54.989Z,14.96
2022-11-05T09:44:37.236Z,15.18
2022-11-05T09:47:11.202Z,15.48
2022-11-05T09:49:50.874Z,15.50
2022-11-05T09:52:29.443Z,15.80
2022-11-05T09:54:57.688Z,16.49
2022-11-05T09:57:28.811Z,16.98
2022-11-05T09:59:58.849Z,17.20
2022-11-05T10:02:27.776Z,17.39
2022-11-05T10:04:58.263Z,17.30
2022-11-05T10:07:28.074Z,17.10
2022-11-05T10:10:05.813Z,16.87
2022-11-05T10:12:41.933Z,16.61
2022-11-05T10:15:41.134Z,16.28
2022-11-05T10:18:16.683Z,16.07
2022-11-05T10:20:44.579Z,15.89
2022-11-05T10:23:13.384Z,15.72
2022-11-05T10:25:55.031Z,15.51
2022-11-05T10:28:24.588Z,15.24
2022-11-05T10:30:56.452Z,15.10
2022-11-05T10:33:28.716Z,14.96
2022-11-05T10:36:03.493Z,14.78
2022-11-05T10:38:30.388Z,14.65
2022-11-05T10:41:23.429Z,14.49
2022-11-05T10:43:52.218Z,14.33
2022-11-05T10:46:32.368Z,14.17
2022-11-05T10:49:20.349Z,13.98
2022-11-05T10:51:52.454Z,13.88
2022-11-05T10:54:22.485Z,13.81
2022-11-05T10:56:49.145Z,13.76
2022-11-05T10:59:29.993Z,13.75
2022-11-05T11:02:24.622Z,13.70
2022-11-05T11:04:52.739Z,13.58
2022-11-05T11:07:24.689Z,13.54
2022-11-05T11:09:51.431Z,13.50
2022-11-05T11:12:24.507Z,13.41
2022-11-05T11:15:21.663Z,13.41
2022-11-05T11:17:48.079Z,13.45
2022-11-05T11:20:27.657Z,13.52
2022-11-05T11:23:14.310Z,13.59
2022-11-05T11:25:50.669Z,13.63
2022-11-05T11:28:27.459Z,13.64
2022-11-05T11:31:20.928Z,13.71
2022-11-05T11:33:51.759Z,13.71
2022-11-05T11:36:24.206Z,13.74
2022-11-05T11:38:50.785Z,13.76
2022-11-05T11:41:24.615Z,13.71
2022-11-05T11:44:00.947Z,13.74
2022-11-05T11:46:32.281Z,13.76
2022-11-05T11:48:59.852Z,13.75
2022-11-05T11:51:36.765Z,13.80
2022-11-05T11:54:04.882Z,13.82
2022-11-05T11:56:44.523Z,13.78
2022-11-05T11:59:46.688Z,13.77
2022-11-05T12:02:14.873Z,13.77
2022-11-05T12:05:02.134Z,13.75
2022-11-05T12:07:43.192Z,13.78
2022-11-05T12:10:23.487Z,13.80
2022-11-05T12:13:08.969Z,13.96
2022-11-05T12:15:49.477Z,14.08
2022-11-05T12:18:40.630Z,14.26
2022-11-05T12:21:52.639Z,14.82
2022-11-05T12:24:32.257Z,15.43
2022-11-05T12:27:24.528Z,15.92
2022-11-05T12:30:12.687Z,15.95
2022-11-05T12:32:54.228Z,15.66
2022-11-05T12:35:47.417Z,15.41
2022-11-05T12:38:30.184Z,15.21
2022-11-05T12:40:59.569Z,15.01
2022-11-05T13:01:34.833Z,14.20
2022-11-05T13:04:08.748Z,14.15
2022-11-05T13:06:41.794Z,14.13
2022-11-05T13:09:08.095Z,14.02
2022-11-05T13:12:11.143Z,13.96
2022-11-05T13:15:06.977Z,13.97
2022-11-05T13:17:47.661Z,14.00
2022-11-05T13:20:21.801Z,14.03
2022-11-05T13:23:25.986Z,14.01
2022-11-05T13:26:19.811Z,14.01
2022-11-05T13:29:11.666Z,13.97
2022-11-05T13:31:43.630Z,13.95
2022-11-05T13:34:11.379Z,14.00
2022-11-05T13:37:17.766Z,13.98
2022-11-05T13:39:52.293Z,13.92
2022-11-05T13:42:55.942Z,13.89
2022-11-05T13:45:34.474Z,13.85
2022-11-05T13:48:22.713Z,13.88
2022-11-05T13:51:14.078Z,13.91
2022-11-05T13:54:05.409Z,13.88
2022-11-05T13:56:40.999Z,13.82
2022-11-05T13:59:22.697Z,13.78
2022-11-05T14:02:04.987Z,13.77
2022-11-05T14:04:35.700Z,13.71
2022-11-05T14:07:18.568Z,13.68
2022-11-05T14:09:45.845Z,13.60
2022-11-05T14:12:26.766Z,13.59
2022-11-05T14:15:02.057Z,13.58
2022-11-05T14:17:33.672Z,13.57
2022-11-05T14:20:03.733Z,13.54
2022-11-05T14:22:33.130Z,13.52
2022-11-05T14:25:00.822Z,13.53
2022-11-05T14:27:36.542Z,13.53
2022-11-05T14:30:42.148Z,13.46
2022-11-05T14:33:25.095Z,13.35
2022-11-05T14:35:53.406Z,13.32
2022-11-05T14:38:25.982Z,13.31
2022-11-05T14:41:01.172Z,13.31
2022-11-05T14:43:33.131Z,13.26
2022-11-05T14:46:00.734Z,13.24
2022-11-05T14:48:40.177Z,13.17
2022-11-05T14:51:35.273Z,13.11
2022-11-05T14:54:29.458Z,13.06
2022-11-05T14:56:58.705Z,13.02
2022-11-05T14:59:25.027Z,13.02
2022-11-05T15:01:56.600Z,13.04
2022-11-05T15:04:27.217Z,13.04
2022-11-05T15:07:02.989Z,13.06
2022-11-05T15:09:46.594Z,13.05
2022-11-05T15:12:24.464Z,13.01
2022-11-05T15:15:21.889Z,13.02
2022-11-05T15:17:58.239Z,13.01
2022-11-05T15:20:40.237Z,12.94
2022-11-05T15:23:12.501Z,12.92
2022-11-05T15:26:06.391Z,12.89
2022-11-05T15:28:37.542Z,12.87
2022-11-05T15:31:30.437Z,12.90
2022-11-05T15:34:16.715Z,12.89
2022-11-05T15:36:59.374Z,12.88
2022-11-05T15:39:32.571Z,12.89
2022-11-05T15:42:06.962Z,12.85
2022-11-05T15:44:39.107Z,12.85
2022-11-05T15:47:06.685Z,12.85
2022-11-05T15:49:33.290Z,12.83
2022-11-05T15:51:59.655Z,12.78
2022-11-05T15:54:30.506Z,12.78
2022-11-05T15:56:59.380Z,12.76
2022-11-05T15:59:28.674Z,12.72
2022-11-05T16:02:13.533Z,12.72
2022-11-05T16:04:40.269Z,12.67
2022-11-05T16:07:09.714Z,12.64
2022-11-05T16:09:41.008Z,12.62
2022-11-05T16:12:24.000Z,12.59
2022-11-05T16:15:00.822Z,12.56
2022-11-05T16:17:31.151Z,12.53
2022-11-05T16:19:57.925Z,12.52
2022-11-05T16:22:24.656Z,12.52
2022-11-05T16:24:51.035Z,12.50
2022-11-05T16:27:21.974Z,12.42
2022-11-05T16:29:55.013Z,12.44
2022-11-05T16:32:30.663Z,12.43
2022-11-05T16:35:00.684Z,12.42
2022-11-05T16:37:32.465Z,12.38
2022-11-05T16:39:58.926Z,12.35
2022-11-05T16:42:34.383Z,12.34
2022-11-05T16:45:05.120Z,12.31
2022-11-05T16:47:31.603Z,12.32
2022-11-05T16:49:58.382Z,12.29
2022-11-05T16:52:25.070Z,12.27
2022-11-05T16:54:51.374Z,12.20
2022-11-05T16:57:25.591Z,12.21
2022-11-05T16:59:52.801Z,12.16
2022-11-05T17:02:19.703Z,12.17
2022-11-05T17:04:47.197Z,12.16
2022-11-05T17:07:13.626Z,12.18
2022-11-05T17:09:39.990Z,12.21
2022-11-05T17:12:06.450Z,12.21
2022-11-05T17:14:32.880Z,12.16
2022-11-05T17:17:02.935Z,12.18
2022-11-05T17:19:29.303Z,12.18
2022-11-05T17:21:55.916Z,12.18
2022-11-05T17:24:22.257Z,12.19
2022-11-05T17:26:48.778Z,12.16
2022-11-05T17:29:15.516Z,12.20
2022-11-05T17:31:42.429Z,12.21
2022-11-05T17:34:09.699Z,12.21
2022-11-05T17:36:36.097Z,12.22
2022-11-05T17:39:02.559Z,12.24
2022-11-05T17:41:28.886Z,12.23
2022-11-05T17:43:57.548Z,12.22
2022-11-05T17:46:24.813Z,12.21
2022-11-05T17:48:51.373Z,12.20
2022-11-05T17:51:19.289Z,12.21
2022-11-05T17:53:48.357Z,12.20
2022-11-05T17:56:27.256Z,12.20
2022-11-05T17:59:00.459Z,12.21
2022-11-05T18:01:30.000Z,12.18
2022-11-05T18:03:57.223Z,12.17
2022-11-05T18:06:23.656Z,12.17
2022-11-05T18:08:50.197Z,12.09
2022-11-05T18:11:17.091Z,12.08
2022-11-05T18:13:43.459Z,12.03
2022-11-05T18:16:10.109Z,11.99
2022-11-05T18:18:36.552Z,11.95
2022-11-05T18:21:03.250Z,11.91
2022-11-05T18:23:29.686Z,11.92
2022-11-05T18:25:56.122Z,11.87
2022-11-05T18:28:22.579Z,11.85
2022-11-05T18:30:51.371Z,11.84
2022-11-05T18:33:20.343Z,11.81
2022-11-05T18:35:46.713Z,11.80
2022-11-05T18:38:13.165Z,11.79
2022-11-05T18:40:39.688Z,11.82
2022-11-05T18:43:06.144Z,11.82
2022-11-05T18:45:33.328Z,11.81
2022-11-05T18:48:03.092Z,11.82
2022-11-05T18:50:29.461Z,11.78
2022-11-05T18:52:56.523Z,11.73
2022-11-05T18:55:24.307Z,11.74
2022-11-05T18:57:50.653Z,11.75
2022-11-05T19:00:17.163Z,11.68
2022-11-05T19:02:43.615Z,11.64
2022-11-05T19:07:56.589Z,11.67
2022-11-05T19:10:22.929Z,11.66
2022-11-05T19:12:49.441Z,11.64
2022-11-05T19:15:18.575Z,11.60
2022-11-05T19:17:44.980Z,11.57
2022-11-05T19:20:12.236Z,11.56
2022-11-05T19:22:38.752Z,11.56
2022-11-05T19:25:05.911Z,11.53
2022-11-05T19:27:32.239Z,11.50
2022-11-05T19:29:58.580Z,11.54
2022-11-05T19:32:25.046Z,11.58
2022-11-05T19:34:51.384Z,11.58
2022-11-05T19:37:20.893Z,11.55
2022-11-05T19:39:47.214Z,11.57
2022-11-05T19:42:13.701Z,11.59
2022-11-05T19:44:40.737Z,11.59
2022-11-05T19:47:07.050Z,11.58
2022-11-05T19:49:33.475Z,11.54
2022-11-05T19:51:59.824Z,11.55
2022-11-05T19:54:26.211Z,11.56
2022-11-05T19:56:52.745Z,11.58
2022-11-05T19:59:19.191Z,11.58
2022-11-05T20:01:45.616Z,11.62
2022-11-05T20:04:12.203Z,11.60
2022-11-05T20:06:40.015Z,11.62
2022-11-05T20:09:27.100Z,11.64
2022-11-05T20:11:56.022Z,11.65
2022-11-05T20:14:23.879Z,11.66
2022-11-05T20:16:50.296Z,11.63
2022-11-05T20:19:21.661Z,11.66
2022-11-05T20:21:51.165Z,11.66
2022-11-05T20:24:24.377Z,11.65
2022-11-05T20:26:53.413Z,11.64
2022-11-05T20:29:20.202Z,11.63
2022-11-05T20:31:46.894Z,11.53
2022-11-05T20:34:13.234Z,11.57
2022-11-05T20:36:39.833Z,11.57
2022-11-05T20:39:06.225Z,11.55
2022-11-05T20:41:33.278Z,11.54
2022-11-05T20:43:59.667Z,11.50
2022-11-05T20:46:26.081Z,11.51
2022-11-05T20:48:53.945Z,11.47
2022-11-05T20:51:22.245Z,11.40
2022-11-05T20:53:49.000Z,11.45
2022-11-05T20:56:20.709Z,11.44
2022-11-05T20:58:47.326Z,11.43
2022-11-05T21:01:16.105Z,11.38
2022-11-05T21:03:43.514Z,11.36
2022-11-05T21:06:09.857Z,11.36
2022-11-05T21:08:36.665Z,11.35
2022-11-05T21:11:03.625Z,11.36
2022-11-05T21:13:30.368Z,11.34
2022-11-05T21:15:59.874Z,11.35
2022-11-05T21:18:28.989Z,11.35
2022-11-05T21:20:55.886Z,11.37
2022-11-05T21:23:22.202Z,11.33
2022-11-05T21:25:48.637Z,11.32
2022-11-05T21:28:15.644Z,11.31
2022-11-05T21:30:47.509Z,11.27
2022-11-05T21:33:15.490Z,11.27
2022-11-05T21:35:48.467Z,11.28
2022-11-05T21:38:16.594Z,11.27
2022-11-05T21:40:43.604Z,11.29
2022-11-05T21:43:10.385Z,11.30
2022-11-05T21:45:44.077Z,11.30
2022-11-05T21:48:11.861Z,11.31
2022-11-05T21:51:00.275Z,11.27
2022-11-05T21:53:45.540Z,11.19
2022-11-05T21:56:38.082Z,11.19
2022-11-05T21:59:28.441Z,11.16
2022-11-05T22:02:01.226Z,11.15
2022-11-05T22:04:32.993Z,11.13
2022-11-05T22:07:02.856Z,11.06
2022-11-05T22:09:29.240Z,11.14
2022-11-05T22:11:56.029Z,11.12
2022-11-05T22:14:26.384Z,11.11
2022-11-05T22:16:52.878Z,11.11
2022-11-05T22:19:20.147Z,11.13
2022-11-05T22:21:46.508Z,11.15
2022-11-05T22:24:12.843Z,11.16
2022-11-05T22:26:40.549Z,11.17
2022-11-05T22:29:08.234Z,11.17
2022-11-05T22:31:36.700Z,11.20
2022-11-05T22:34:04.277Z,11.21
2022-11-05T22:36:30.627Z,11.22
2022-11-05T22:38:57.274Z,11.22
2022-11-05T22:41:23.639Z,11.23
2022-11-05T22:43:50.157Z,11.22
2022-11-05T22:46:19.078Z,11.22
2022-11-05T22:48:46.089Z,11.21
2022-11-05T22:51:15.123Z,11.21
2022-11-05T22:53:42.522Z,11.20
2022-11-05T22:56:11.246Z,11.17
2022-11-05T22:58:38.029Z,11.18
2022-11-05T23:01:06.257Z,11.18
2022-11-05T23:03:33.275Z,11.18
2022-11-05T23:06:02.564Z,11.16
2022-11-05T23:08:47.892Z,11.17
2022-11-05T23:11:35.956Z,11.17
2022-11-05T23:14:03.027Z,11.18
2022-11-05T23:16:48.154Z,11.14
2022-11-05T23:19:33.064Z,11.15
2022-11-05T23:22:17.992Z,11.16
2022-11-05T23:24:44.400Z,11.15
2022-11-05T23:27:10.788Z,11.14
2022-11-05T23:29:37.138Z,11.15
2022-11-05T23:32:22.344Z,11.15
2022-11-05T23:34:48.648Z,11.16
2022-11-05T23:37:33.517Z,11.16
2022-11-05T23:39:59.872Z,11.19
2022-11-05T23:42:44.640Z,11.19
2022-11-05T23:45:29.913Z,11.21
2022-11-05T23:48:15.027Z,11.20
2022-11-05T23:50:44.231Z,11.21
2022-11-05T23:53:10.596Z,11.20
2022-11-05T23:55:37.514Z,11.20
2022-11-05T23:58:04.142Z,11.19
